• Join FlightAware (Why Join?)
  • Login
  • US Flag 
05:38PM EDT


 

Airport Tracker/Info


-or-


 

Live Flight TrackerFlight Track Log ✈ WJA175 ✈ 18-Aug-2014 ✈ CYWG - CYYC

Flight Track Log - Related Links

Times and Time Zones

All times are in EDT time to prevent confusion due to time zone crossing. See the WJA175 flight status page for this flight to view local times or setup timezone preferences in your user account.

Time Position Orientation Groundspeed Altitude Reporting Facility
EDT Latitude Longitude Course Direction KTS MPH feet Rate Location/Type
12:04PM 49.9333 -97.3000 316° Northwest 210 242 3,300  Level Winnipeg Center
12:05PM 49.9500 -97.4333 281° West 260 299 5,300 2,400 Climbing Winnipeg Center
12:06PM 49.9500 -97.5333 270° West 280 322 8,100 2,640 Climbing Winnipeg Center
12:07PM 49.9667 -97.6667 281° West 290 334 10,600 2,520 Climbing Winnipeg Center
12:08PM 49.9667 -97.8000 270° West 340 391 13,200 2,820 Climbing Winnipeg Center
12:09PM 49.9833 -97.9500 280° West 360 414 16,300 3,120 Climbing Winnipeg Center
12:10PM 49.9833 -98.1167 270° West 370 426 19,500 2,820 Climbing Winnipeg Center
12:11PM 50.0000 -98.3000 278° West 380 437 22,000 2,400 Climbing Winnipeg Center
12:12PM 50.0333 -98.4500 289° West 400 460 24,300 2,160 Climbing Winnipeg Center
12:13PM 50.0500 -98.6333 278° West 420 483 26,400 2,040 Climbing Winnipeg Center
12:14PM 50.0667 -98.8167 278° West 430 495 28,400 1,740 Climbing Winnipeg Center
12:15PM 50.0833 -99.0000 278° West 440 506 29,900 1,740 Climbing Winnipeg Center
12:16PM 50.1000 -99.2167 277° West 450 518 31,900 1,980 Climbing Winnipeg Center
12:17PM 50.1000 -99.4000 270° West 440 506 33,900 1,800 Climbing Winnipeg Center
12:18PM 50.1167 -99.5833 278° West 440 506 35,500 1,500 Climbing Winnipeg Center
12:19PM 50.1500 -99.7667 286° West 430 495 36,900 1,200 Climbing Winnipeg Center
12:20PM 50.1667 -99.9500 278° West 430 495 38,000 540 Climbing Winnipeg Center
12:21PM 50.1667 -100.1500 270° West 430 495 38,000  Level Winnipeg Center
12:22PM 50.1833 -100.3167 279° West 430 495 38,000  Level Winnipeg Center
12:23PM 50.2000 -100.5167 277° West 430 495 38,000  Level Winnipeg Center
12:24PM 50.2167 -100.6833 279° West 430 495 38,000  Level Winnipeg Center
12:25PM 50.2333 -100.8667 278° West 420 483 38,000  Level Winnipeg Center
12:26PM 50.2500 -101.0500 278° West 420 483 38,000  Level Winnipeg Center
12:27PM 50.2500 -101.2333 270° West 420 483 38,000  Level Winnipeg Center
12:28PM 50.2667 -101.4167 278° West 420 483 38,000  Level Winnipeg Center
12:29PM 50.2833 -101.6000 278° West 410 472 38,000  Level Winnipeg Center
12:30PM 50.3000 -101.7833 278° West 420 483 38,000  Level Winnipeg Center
12:31PM 50.3000 -101.9667 270° West 430 495 38,000  Level Winnipeg Center
12:32PM 50.3167 -102.1333 279° West 430 495 38,000  Level Winnipeg Center
12:33PM 50.3333 -102.3500 277° West 430 495 38,000  Level Winnipeg Center
12:34PM 50.3500 -102.5333 278° West 430 495 38,000  Level Winnipeg Center
12:35PM 50.3667 -102.7167 278° West 430 495 38,000  Level Winnipeg Center
12:36PM 50.4000 -102.8833 287° West 420 483 38,000  Level Winnipeg Center
12:37PM 50.4167 -103.0667 278° West 420 483 38,000  Level Winnipeg Center
12:38PM 50.4500 -103.2500 286° West 420 483 38,000  Level Winnipeg Center
12:39PM 50.4667 -103.4167 279° West 420 483 38,000  Level Winnipeg Center
12:40PM 50.5000 -103.6000 286° West 420 483 38,000  Level Winnipeg Center
12:41PM 50.5333 -103.7833 286° West 420 483 38,000  Level Winnipeg Center
12:42PM 50.5500 -103.9833 278° West 420 483 38,000  Level Winnipeg Center
12:43PM 50.5833 -104.1333 289° West 410 472 38,000  Level Winnipeg Center
12:44PM 50.6000 -104.3333 278° West 420 483 38,000  Level Winnipeg Center
12:45PM 50.6167 -104.5000 279° West 420 483 38,000  Level Winnipeg Center
12:46PM 50.6500 -104.6833 286° West 420 483 38,000  Level Winnipeg Center
12:47PM 50.6667 -104.8667 278° West 420 483 38,000  Level Winnipeg Center
12:48PM 50.7000 -105.0667 285° West 420 483 38,000  Level Winnipeg Center
12:49PM 50.7167 -105.2167 280° West 420 483 38,000  Level Winnipeg Center
12:50PM 50.7500 -105.4167 285° West 420 483 38,000  Level Winnipeg Center
12:51PM 50.7667 -105.5833 279° West 420 483 38,000  Level Winnipeg Center
12:52PM 50.7833 -105.7333 280° West 420 483 38,000  Level Edmonton Center
12:53PM 50.8000 -105.9333 278° West 420 483 38,000  Level Edmonton Center
12:54PM 50.8167 -106.1167 278° West 410 472 38,000  Level Edmonton Center
12:55PM 50.8333 -106.3000 278° West 420 483 38,000  Level Edmonton Center
12:56PM 50.8500 -106.4833 278° West 420 483 38,000  Level Edmonton Center
12:57PM 50.8667 -106.6500 279° West 420 483 38,000  Level Edmonton Center
12:58PM 50.9000 -106.8667 284° West 420 483 38,000  Level Edmonton Center
12:59PM 50.9167 -107.0167 280° West 420 483 38,000  Level Edmonton Center
01:00PM 50.9500 -107.2167 285° West 420 483 38,000  Level Edmonton Center
01:01PM 50.9500 -107.4000 270° West 430 495 38,000  Level Edmonton Center
01:02PM 50.9833 -107.5833 286° West 430 495 38,000  Level Edmonton Center
01:03PM 51.0000 -107.7833 278° West 430 495 38,000  Level Edmonton Center
01:04PM 51.0167 -107.9667 278° West 430 495 38,000  Level Edmonton Center
01:05PM 51.0333 -108.1500 278° West 430 495 38,000  Level Edmonton Center
01:06PM 51.0500 -108.3500 278° West 430 495 38,000  Level Edmonton Center
01:07PM 51.0833 -108.5333 286° West 430 495 38,000  Level Edmonton Center
01:08PM 51.0833 -108.7333 270° West 430 495 38,000  Level Edmonton Center
01:09PM 51.1167 -108.9167 286° West 430 495 38,000  Level Winnipeg Center
01:10PM 51.1333 -109.1167 278° West 430 495 38,000  Level Winnipeg Center
01:12PM 51.1667 -109.4833 278° West 420 483 38,000  Level Edmonton Center
01:13PM 51.1667 -109.6833 270° West 420 483 38,000  Level Edmonton Center
01:14PM 51.2000 -109.8333 290° West 430 495 38,000  Level Edmonton Center
01:15PM 51.2000 -110.0500 270° West 430 495 38,000  Level Edmonton Center
01:16PM 51.2333 -110.2500 285° West 430 495 38,000  Level Edmonton Center
01:17PM 51.2333 -110.4333 270° West 430 495 38,000  Level Edmonton Center
01:18PM 51.2667 -110.6333 285° West 430 495 38,000  Level Edmonton Center
01:19PM 51.2667 -110.8167 270° West 430 495 38,000  Level Edmonton Center
01:20PM 51.3000 -111.0167 285° West 440 506 38,000 -540 Level Edmonton Center
01:21PM 51.3000 -111.2000 270° West 430 495 37,000 -1,680 Descending Edmonton Center
01:22PM 51.3167 -111.4000 278° West 430 495 34,700 -2,220 Descending Edmonton Center
01:23PM 51.3333 -111.5833 278° West 420 483 32,600 -2,040 Descending Edmonton Center
01:24PM 51.3500 -111.7833 278° West 410 472 30,700 -1,920 Descending Edmonton Center
01:25PM 51.3500 -111.9500 270° West 400 460 28,800 -1,920 Descending Edmonton Center
01:26PM 51.3833 -112.1167 288° West 390 449 26,900 -1,800 Descending Edmonton Center
01:27PM 51.3833 -112.2833 270° West 380 437 25,200 -1,800 Descending Edmonton Center
01:28PM 51.4000 -112.4333 280° West 360 414 23,300 -1,800 Descending Edmonton Center
01:29PM 51.4000 -112.6000 270° West 350 403 21,700 -1,620 Descending Edmonton Center
01:31PM 51.4333 -112.9000 280° West 330 380 18,500 -1,620 Descending Edmonton Center
01:32PM 51.4333 -113.0500 270° West 320 368 17,000 -1,560 Descending Edmonton Center
01:33PM 51.4333 -113.1833 270° West 310 357 15,400 -1,140 Descending Edmonton Center
01:34PM 51.4333 -113.2833 270° West 280 322 14,800 -840 Descending Edmonton Center
01:35PM 51.3833 -113.4167 239° Southwest 280 322 13,800 -960 Descending Edmonton Center
01:36PM 51.3333 -113.4833 220° Southwest 280 322 12,900 -1,020 Descending Edmonton Center
01:37PM 51.2833 -113.5833 231° Southwest 270 311 11,800 -1,080 Descending Edmonton Center
01:38PM 51.2500 -113.6833 242° Southwest 260 299 10,800 -1,140 Descending Edmonton Center
01:39PM 51.2667 -113.8000 283° West 270 311 9,600 -1,140 Descending Edmonton Center
01:40PM 51.3333 -113.9000 317° Northwest 280 322 8,600 -720 Descending Edmonton Center
01:41PM 51.4000 -113.8833 North 250 288 8,200 -480 Descending Edmonton Center
01:42PM 51.4333 -113.9167 328° Northwest 190 219 7,700 -480 Descending Edmonton Center
01:43PM 51.4000 -113.9667 223° Southwest 190 219 7,300 -360 Descending Edmonton Center
01:44PM 51.3500 -114.0000 203° Southwest 200 230 7,000 -300 Descending Edmonton Center
01:45PM 51.2833 -114.0167 189° South 200 230 6,800 -660 Descending Edmonton Center
01:46PM 51.2167 -114.0167 180° South 200 230 5,700 -1,080 Descending Edmonton Center
01:47PM 51.1667 -114.0167 180° South 190 219 4,700 -900 Descending Edmonton Center
01:48PM 51.1333 -114.0167 180° South 160 184 3,900 -600 Descending Edmonton Center
01:49PM 51.1000 -114.0167 180° South 50 58 3,600 -300 Descending Edmonton Center